Time;durP1;ratioP1;P1;durP2;ratioP2;P2;SDS_P1;SDS_P2;PMS_P1;PMS_P2;Temp;Humidity;BMP_temperature;BMP_pressure;BME280_temperature;BME280_humidity;BME280_pressure;Samples;Min_cycle;Max_cycle;Signal;HPM_P1;HPM_P2
2023/12/06 00:00:30;;;;;;;2.97;2.25;;;6.10;93.00;;;;;;2556028;28;20058;-80
2023/12/06 00:01:44;;;;;;;3.08;2.50;;;6.10;92.70;;;;;;2556430;28;20048;-79
2023/12/06 00:02:58;;;;;;;3.17;2.22;;;6.10;92.70;;;;;;2556438;28;20040;-80
2023/12/06 00:04:12;;;;;;;2.50;2.15;;;6.10;92.70;;;;;;2555896;28;20048;-80
2023/12/06 00:05:27;;;;;;;3.00;1.60;;;6.10;92.80;;;;;;2556699;28;20051;-80
2023/12/06 00:06:40;;;;;;;3.47;2.10;;;6.10;92.70;;;;;;2556239;28;20048;-80
2023/12/06 00:07:55;;;;;;;6.72;2.80;;;6.10;92.70;;;;;;2555670;28;20063;-80
2023/12/06 00:09:09;;;;;;;6.53;2.42;;;6.10;92.70;;;;;;2556101;28;20048;-81
2023/12/06 00:10:23;;;;;;;2.25;2.05;;;6.10;92.70;;;;;;2556343;28;20581;-81
2023/12/06 00:11:38;;;;;;;3.30;1.77;;;6.10;92.70;;;;;;2556248;28;20044;-80
2023/12/06 00:12:53;;;;;;;2.38;1.30;;;6.10;92.70;;;;;;2556196;28;20098;-80
2023/12/06 00:14:08;;;;;;;2.17;1.67;;;6.10;92.70;;;;;;2555935;28;20056;-80
2023/12/06 00:15:22;;;;;;;4.50;1.83;;;6.10;92.70;;;;;;2555342;28;20045;-79
2023/12/06 00:16:38;;;;;;;3.63;1.77;;;6.10;92.70;;;;;;2555962;28;20048;-80
2023/12/06 00:17:52;;;;;;;2.28;1.95;;;6.10;92.70;;;;;;2556832;28;20068;-79
2023/12/06 00:19:06;;;;;;;5.28;1.80;;;6.10;92.70;;;;;;2556207;28;20048;-80
2023/12/06 00:20:21;;;;;;;2.20;1.55;;;6.10;92.70;;;;;;2557112;28;20070;-80
2023/12/06 00:21:35;;;;;;;2.65;1.45;;;6.10;92.70;;;;;;2556770;28;20048;-80
2023/12/06 00:22:49;;;;;;;3.00;1.92;;;6.10;92.70;;;;;;2555950;28;20130;-79
2023/12/06 00:24:04;;;;;;;1.90;1.48;;;6.20;92.70;;;;;;2552419;28;20040;-77
2023/12/06 00:25:20;;;;;;;3.28;1.40;;;6.20;92.70;;;;;;2554740;28;20052;-79
2023/12/06 00:26:34;;;;;;;3.03;1.35;;;6.10;92.70;;;;;;2555675;28;20124;-79
2023/12/06 00:27:48;;;;;;;1.88;1.13;;;6.20;92.70;;;;;;2554601;28;20125;-79
2023/12/06 00:29:02;;;;;;;1.77;1.13;;;6.20;92.70;;;;;;2554530;28;20048;-79
2023/12/06 00:30:18;;;;;;;2.75;2.00;;;6.20;92.70;;;;;;2554855;28;20040;-79
2023/12/06 00:31:32;;;;;;;3.63;2.97;;;6.20;92.70;;;;;;2555157;28;20417;-79
2023/12/06 00:32:47;;;;;;;2.30;1.85;;;6.20;92.70;;;;;;2555192;28;20060;-79
2023/12/06 00:34:00;;;;;;;2.28;1.85;;;6.20;92.70;;;;;;2554869;28;20146;-79
2023/12/06 00:35:15;;;;;;;6.63;2.08;;;6.20;92.70;;;;;;2554480;28;20060;-79
2023/12/06 00:36:29;;;;;;;3.63;2.00;;;6.20;92.70;;;;;;2556122;28;20297;-80
2023/12/06 00:37:50;;;;;;;7.05;2.25;;;6.20;92.70;;;;;;2556568;28;20044;-79
2023/12/06 00:39:04;;;;;;;6.75;2.65;;;6.20;92.70;;;;;;2548083;28;20052;-80
2023/12/06 00:40:19;;;;;;;4.90;1.50;;;6.20;92.70;;;;;;2556314;28;20446;-80
2023/12/06 00:41:33;;;;;;;6.68;2.70;;;6.20;92.70;;;;;;2556249;28;20090;-78
2023/12/06 00:42:47;;;;;;;2.20;1.25;;;6.20;92.70;;;;;;2556325;28;20045;-80
2023/12/06 00:44:02;;;;;;;2.55;2.35;;;6.20;92.70;;;;;;2555561;28;20044;-81
2023/12/06 00:45:18;;;;;;;5.38;2.28;;;6.20;92.70;;;;;;2556170;28;20064;-79
2023/12/06 00:46:32;;;;;;;2.30;1.50;;;6.20;92.70;;;;;;2556441;28;20512;-80
2023/12/06 00:47:47;;;;;;;1.90;1.77;;;6.20;92.70;;;;;;2555671;28;20123;-79
2023/12/06 00:49:03;;;;;;;2.75;1.80;;;6.20;92.80;;;;;;2556302;28;20044;-79
2023/12/06 00:50:18;;;;;;;2.42;1.90;;;6.20;92.80;;;;;;2556194;28;20048;-80
2023/12/06 00:51:31;;;;;;;2.35;1.48;;;6.20;92.80;;;;;;2555900;28;20060;-80
2023/12/06 00:52:46;;;;;;;2.58;2.08;;;6.20;92.80;;;;;;2556234;28;20123;-80
2023/12/06 00:54:00;;;;;;;5.28;2.92;;;6.20;92.70;;;;;;2556773;28;20053;-80
2023/12/06 00:55:15;;;;;;;5.88;3.30;;;6.20;92.70;;;;;;2555734;28;21149;-80
2023/12/06 00:56:28;;;;;;;4.15;1.63;;;6.20;92.70;;;;;;2556522;28;20083;-77
2023/12/06 00:57:44;;;;;;;10.00;3.55;;;6.20;92.70;;;;;;2556782;28;20114;-78
2023/12/06 00:58:58;;;;;;;4.88;1.83;;;6.20;92.70;;;;;;2556096;28;20056;-81
2023/12/06 01:00:14;;;;;;;2.25;2.05;;;6.20;92.70;;;;;;2556003;28;20070;-81
2023/12/06 01:01:29;;;;;;;4.53;2.10;;;6.20;92.70;;;;;;2556049;28;20049;-80
2023/12/06 01:02:43;;;;;;;4.07;2.22;;;6.20;92.70;;;;;;2555833;28;20685;-79
2023/12/06 01:03:58;;;;;;;2.10;1.90;;;6.20;92.70;;;;;;2555656;28;20048;-79
2023/12/06 01:05:13;;;;;;;1.67;1.45;;;6.20;92.70;;;;;;2556193;28;20059;-80
2023/12/06 01:06:26;;;;;;;3.88;1.70;;;6.20;92.70;;;;;;2556285;28;20048;-79
2023/12/06 01:07:42;;;;;;;3.58;1.65;;;6.20;92.70;;;;;;2556140;28;20051;-79
2023/12/06 01:08:58;;;;;;;2.08;1.70;;;6.20;92.70;;;;;;2556939;28;20048;-79
2023/12/06 01:10:17;;;;;;;3.10;2.08;;;6.20;92.70;;;;;;2554762;28;20040;-80
2023/12/06 01:11:31;;;;;;;3.67;2.47;;;6.20;92.70;;;;;;2555798;28;20100;-80
2023/12/06 01:12:45;;;;;;;6.18;3.15;;;6.20;92.70;;;;;;2556584;28;20052;-79
2023/12/06 01:13:59;;;;;;;8.00;3.47;;;6.20;92.70;;;;;;2557004;28;20048;-80
2023/12/06 01:15:40;;;;;;;3.17;2.53;;;6.20;92.70;;;;;;2555881;28;20036;-79
2023/12/06 01:16:55;;;;;;;4.03;1.83;;;6.20;92.70;;;;;;2558455;28;20052;-78
2023/12/06 01:18:10;;;;;;;2.65;2.30;;;6.20;92.70;;;;;;2557944;28;20500;-78
2023/12/06 01:19:24;;;;;;;3.90;2.67;;;6.20;93.10;;;;;;2557226;28;20045;-76
2023/12/06 01:20:39;;;;;;;4.00;2.40;;;6.20;92.80;;;;;;2557623;28;20568;-76
2023/12/06 01:21:52;;;;;;;4.22;2.70;;;6.20;92.80;;;;;;2556360;28;20155;-80
2023/12/06 01:23:07;;;;;;;5.35;2.10;;;6.20;92.80;;;;;;2555232;28;20074;-80
2023/12/06 01:24:21;;;;;;;4.22;2.35;;;6.20;92.80;;;;;;2555806;28;20048;-78
2023/12/06 01:25:36;;;;;;;7.45;2.63;;;6.20;92.80;;;;;;2555845;28;20068;-79
2023/12/06 01:26:50;;;;;;;8.52;3.67;;;6.20;92.80;;;;;;2556613;28;20053;-80
2023/12/06 01:28:04;;;;;;;5.85;2.95;;;6.20;92.80;;;;;;2555895;28;20144;-80
2023/12/06 01:29:18;;;;;;;8.00;2.63;;;6.20;92.80;;;;;;2556362;28;20082;-80
2023/12/06 01:30:33;;;;;;;4.20;3.15;;;6.20;92.80;;;;;;2555944;28;20439;-80
2023/12/06 01:31:47;;;;;;;3.08;2.65;;;6.30;92.80;;;;;;2555371;28;20048;-79
2023/12/06 01:33:03;;;;;;;9.48;4.50;;;6.30;92.80;;;;;;2555499;28;20051;-79
2023/12/06 01:34:16;;;;;;;4.97;3.20;;;6.30;92.80;;;;;;2555283;28;20040;-79
2023/12/06 01:35:31;;;;;;;7.38;3.47;;;6.30;92.80;;;;;;2554372;28;20048;-79
2023/12/06 01:36:45;;;;;;;10.80;3.65;;;6.30;92.80;;;;;;2555310;28;20048;-78
2023/12/06 01:37:59;;;;;;;7.32;3.65;;;6.30;92.80;;;;;;2555149;28;20041;-79
2023/12/06 01:39:13;;;;;;;5.30;2.70;;;6.30;92.80;;;;;;2554900;28;20057;-79
2023/12/06 01:40:28;;;;;;;4.90;2.90;;;6.30;92.80;;;;;;2554723;28;20040;-79
2023/12/06 01:41:46;;;;;;;4.68;2.60;;;6.30;92.80;;;;;;2555614;28;20159;-79
2023/12/06 01:43:00;;;;;;;5.65;3.25;;;6.30;92.90;;;;;;2554170;28;20056;-79
2023/12/06 01:44:14;;;;;;;4.88;3.22;;;6.30;92.80;;;;;;2555103;28;20040;-80
2023/12/06 01:45:29;;;;;;;6.32;3.22;;;6.30;92.80;;;;;;2555046;28;20485;-79
2023/12/06 01:46:43;;;;;;;7.25;2.60;;;6.30;92.80;;;;;;2555064;28;20430;-79
2023/12/06 01:47:58;;;;;;;5.78;4.13;;;6.30;92.70;;;;;;2554499;28;20046;-79
2023/12/06 01:49:13;;;;;;;15.95;4.68;;;6.30;92.70;;;;;;2555015;28;20044;-80
2023/12/06 01:50:29;;;;;;;5.20;2.50;;;6.30;92.80;;;;;;2554731;28;20048;-80
2023/12/06 01:51:42;;;;;;;5.05;2.92;;;6.30;92.80;;;;;;2554833;28;20049;-79
2023/12/06 01:52:59;;;;;;;10.55;3.65;;;6.30;92.80;;;;;;2554860;28;20070;-78
2023/12/06 01:54:13;;;;;;;7.03;3.30;;;6.30;92.80;;;;;;2554997;28;20055;-79
2023/12/06 01:55:28;;;;;;;8.38;3.03;;;6.30;92.80;;;;;;2554008;28;20037;-80
2023/12/06 01:56:44;;;;;;;4.35;2.70;;;6.30;92.80;;;;;;2554621;28;20044;-79
2023/12/06 01:57:59;;;;;;;3.30;3.00;;;6.30;92.80;;;;;;2554315;28;20067;-80
2023/12/06 01:59:15;;;;;;;3.67;2.67;;;6.30;92.80;;;;;;2554661;28;20048;-79
2023/12/06 02:00:31;;;;;;;3.97;2.83;;;6.30;92.80;;;;;;2554307;28;20043;-81
2023/12/06 02:01:45;;;;;;;5.35;2.60;;;6.30;92.80;;;;;;2554911;28;20048;-79
2023/12/06 02:03:00;;;;;;;3.97;2.65;;;6.30;92.80;;;;;;2554607;28;20048;-80
2023/12/06 02:04:15;;;;;;;3.90;3.05;;;6.30;92.80;;;;;;2555150;28;20052;-79
2023/12/06 02:05:30;;;;;;;4.07;2.67;;;6.30;92.80;;;;;;2554762;28;20044;-79
2023/12/06 02:06:44;;;;;;;5.43;3.55;;;6.30;92.80;;;;;;2554700;28;20052;-79
2023/12/06 02:08:00;;;;;;;8.25;3.85;;;6.30;92.80;;;;;;2554620;28;20044;-80
2023/12/06 02:09:17;;;;;;;6.15;2.22;;;6.40;92.80;;;;;;2554741;28;20044;-80
2023/12/06 02:10:31;;;;;;;5.00;3.05;;;6.30;92.80;;;;;;2554824;28;20231;-81
2023/12/06 02:11:45;;;;;;;8.88;3.00;;;6.30;93.10;;;;;;2554026;28;20052;-81
2023/12/06 02:13:00;;;;;;;5.75;2.97;;;6.30;92.80;;;;;;2554463;28;20041;-81
2023/12/06 02:14:13;;;;;;;7.22;3.15;;;6.30;92.80;;;;;;2554017;28;20048;-81
2023/12/06 02:15:28;;;;;;;5.50;3.20;;;6.30;92.80;;;;;;2554262;28;20037;-81
2023/12/06 02:16:42;;;;;;;7.30;2.70;;;6.30;92.80;;;;;;2554126;28;20060;-80
2023/12/06 02:17:58;;;;;;;5.70;3.67;;;6.30;92.80;;;;;;2554479;28;20102;-81
2023/12/06 02:19:18;;;;;;;3.72;2.25;;;6.30;92.80;;;;;;2553849;28;20053;-80
2023/12/06 02:20:33;;;;;;;8.43;4.55;;;6.30;92.80;;;;;;2554331;28;20052;-81
2023/12/06 02:21:47;;;;;;;5.13;2.97;;;6.30;92.80;;;;;;2554286;28;20051;-79
2023/12/06 02:23:04;;;;;;;3.05;2.80;;;6.30;92.80;;;;;;2554432;28;20070;-80
2023/12/06 02:24:19;;;;;;;6.25;3.55;;;6.30;92.80;;;;;;2554657;28;20040;-80
2023/12/06 02:25:35;;;;;;;4.85;2.85;;;6.30;92.80;;;;;;2554577;28;20040;-81
2023/12/06 02:26:52;;;;;;;4.13;3.13;;;6.30;92.80;;;;;;2554692;28;20067;-80
2023/12/06 02:28:07;;;;;;;5.72;2.80;;;6.30;92.80;;;;;;2554143;28;20425;-80
2023/12/06 02:29:23;;;;;;;6.75;2.88;;;6.30;92.80;;;;;;2554455;28;20131;-80
2023/12/06 02:30:37;;;;;;;5.57;3.00;;;6.30;92.80;;;;;;2554644;28;20079;-79
2023/12/06 02:31:51;;;;;;;2.95;2.35;;;6.30;92.80;;;;;;2553754;28;20532;-79
2023/12/06 02:33:06;;;;;;;5.53;3.13;;;6.30;92.90;;;;;;2554168;28;20048;-80
2023/12/06 02:34:23;;;;;;;4.95;2.40;;;6.30;92.80;;;;;;2554415;28;20040;-80
2023/12/06 02:35:46;;;;;;;6.22;2.97;;;6.30;92.80;;;;;;2554108;28;20044;-80
2023/12/06 02:37:04;;;;;;;5.45;3.03;;;6.30;92.90;;;;;;2554198;28;20049;-80
2023/12/06 02:38:21;;;;;;;4.90;2.97;;;6.30;92.90;;;;;;2554171;28;20427;-79
2023/12/06 02:39:36;;;;;;;8.10;3.55;;;6.30;92.90;;;;;;2553898;28;20052;-80
2023/12/06 02:40:54;;;;;;;4.88;2.72;;;6.30;92.90;;;;;;2554627;28;20114;-80
2023/12/06 02:42:08;;;;;;;6.13;3.50;;;6.30;92.90;;;;;;2554189;28;20044;-81
2023/12/06 02:43:23;;;;;;;5.20;3.05;;;6.30;92.90;;;;;;2554105;28;20120;-80
2023/12/06 02:44:37;;;;;;;6.25;2.78;;;6.30;92.90;;;;;;2553975;28;20052;-80
2023/12/06 02:45:52;;;;;;;4.68;2.55;;;6.30;92.90;;;;;;2554351;28;20063;-81
2023/12/06 02:47:06;;;;;;;5.93;2.67;;;6.30;92.90;;;;;;2553620;28;20055;-81
2023/12/06 02:48:21;;;;;;;5.55;3.85;;;6.30;92.80;;;;;;2554372;28;20041;-81
2023/12/06 02:49:34;;;;;;;3.55;2.60;;;6.30;92.90;;;;;;2554591;28;20055;-80
2023/12/06 02:50:49;;;;;;;4.10;2.85;;;6.30;92.90;;;;;;2554496;28;20670;-81
2023/12/06 02:52:04;;;;;;;4.53;3.70;;;6.30;92.90;;;;;;2554027;28;20131;-79
2023/12/06 02:53:18;;;;;;;6.38;2.67;;;6.30;92.90;;;;;;2554375;28;20036;-81
2023/12/06 02:54:32;;;;;;;7.03;2.95;;;6.30;92.90;;;;;;2554712;28;20041;-82
2023/12/06 02:55:47;;;;;;;4.82;3.03;;;6.30;92.90;;;;;;2553930;28;20042;-81
2023/12/06 02:57:02;;;;;;;5.15;2.13;;;6.40;92.90;;;;;;2554538;28;20064;-79
2023/12/06 02:58:17;;;;;;;4.97;3.65;;;6.40;92.90;;;;;;2553975;28;20053;-81
2023/12/06 02:59:30;;;;;;;6.38;2.80;;;6.40;92.90;;;;;;2553930;28;20549;-80
2023/12/06 03:00:45;;;;;;;9.50;2.83;;;6.30;92.90;;;;;;2554242;28;20122;-81
2023/12/06 03:01:59;;;;;;;6.07;2.88;;;6.30;92.90;;;;;;2554509;28;20056;-81
2023/12/06 03:03:13;;;;;;;3.35;2.55;;;6.30;92.90;;;;;;2554022;28;20051;-81
2023/12/06 03:04:27;;;;;;;3.92;2.78;;;6.30;92.90;;;;;;2554781;28;20049;-81
2023/12/06 03:05:42;;;;;;;6.80;2.90;;;6.40;92.90;;;;;;2553925;28;20052;-79
2023/12/06 03:06:56;;;;;;;3.15;2.47;;;6.40;92.80;;;;;;2553874;28;20497;-81
2023/12/06 03:08:14;;;;;;;6.60;2.45;;;6.40;92.80;;;;;;2554270;28;20048;-81
2023/12/06 03:09:27;;;;;;;6.05;3.60;;;6.30;92.80;;;;;;2554560;28;20041;-81
2023/12/06 03:10:42;;;;;;;3.60;2.72;;;6.30;92.80;;;;;;2554607;28;20548;-81
2023/12/06 03:11:56;;;;;;;5.43;3.65;;;6.30;92.80;;;;;;2554113;28;20040;-79
2023/12/06 03:13:12;;;;;;;6.50;3.10;;;6.30;92.80;;;;;;2554634;28;20473;-81
2023/12/06 03:14:26;;;;;;;4.93;2.70;;;6.30;92.90;;;;;;2554017;28;20048;-80
2023/12/06 03:15:40;;;;;;;10.00;3.92;;;6.30;92.90;;;;;;2552969;28;20039;-81
2023/12/06 03:16:54;;;;;;;7.13;3.03;;;6.30;92.90;;;;;;2554017;28;20055;-81
2023/12/06 03:18:09;;;;;;;3.33;3.03;;;6.30;92.90;;;;;;2554463;28;20649;-80
2023/12/06 03:19:22;;;;;;;4.88;2.30;;;6.30;92.90;;;;;;2553490;28;20578;-81
2023/12/06 03:20:37;;;;;;;5.03;3.47;;;6.30;92.90;;;;;;2554223;28;20044;-79
2023/12/06 03:21:51;;;;;;;9.20;4.50;;;6.30;92.90;;;;;;2553898;28;20064;-81
2023/12/06 03:23:06;;;;;;;3.88;3.10;;;6.30;92.90;;;;;;2553263;28;20137;-79
2023/12/06 03:24:20;;;;;;;5.47;2.83;;;6.30;92.90;;;;;;2553867;28;20040;-79
2023/12/06 03:25:35;;;;;;;7.40;2.97;;;6.30;92.90;;;;;;2553813;28;20488;-80
2023/12/06 03:26:48;;;;;;;4.50;3.03;;;6.30;93.00;;;;;;2553660;28;20054;-81
2023/12/06 03:28:04;;;;;;;7.47;3.45;;;6.40;93.00;;;;;;2543697;28;20667;-80
2023/12/06 03:29:19;;;;;;;7.47;3.13;;;6.30;92.90;;;;;;2541157;28;20053;-80
2023/12/06 03:30:34;;;;;;;4.57;2.67;;;6.30;92.90;;;;;;2538769;28;20143;-80
2023/12/06 03:31:48;;;;;;;5.40;3.75;;;6.30;92.90;;;;;;2536310;28;20486;-81
2023/12/06 03:33:02;;;;;;;4.50;2.97;;;6.30;92.90;;;;;;2533718;28;20049;-80
2023/12/06 03:34:16;;;;;;;3.45;2.67;;;6.40;93.00;;;;;;2533512;28;20060;-81
2023/12/06 03:35:31;;;;;;;9.23;3.67;;;6.40;92.90;;;;;;2537982;28;20497;-81
2023/12/06 03:36:45;;;;;;;3.40;2.67;;;6.40;92.90;;;;;;2544075;28;20052;-80
2023/12/06 03:37:59;;;;;;;4.30;3.40;;;6.40;92.80;;;;;;2543725;28;20055;-80
2023/12/06 03:39:13;;;;;;;3.28;2.67;;;6.30;92.80;;;;;;2542531;28;20048;-80
2023/12/06 03:40:28;;;;;;;3.53;2.63;;;6.40;92.80;;;;;;2543203;28;20387;-81
2023/12/06 03:41:42;;;;;;;5.18;2.67;;;6.30;92.80;;;;;;2538387;28;20148;-80
2023/12/06 03:42:57;;;;;;;4.50;2.63;;;6.30;92.80;;;;;;2540988;28;20053;-80
2023/12/06 03:44:10;;;;;;;8.38;3.60;;;6.40;92.90;;;;;;2543945;28;20049;-81
2023/12/06 03:45:26;;;;;;;6.53;3.45;;;6.40;92.90;;;;;;2543595;28;20071;-80
2023/12/06 03:46:40;;;;;;;7.70;2.92;;;6.40;92.90;;;;;;2543884;28;20053;-80
2023/12/06 03:47:55;;;;;;;8.68;5.15;;;6.40;92.90;;;;;;2535553;28;20517;-81
2023/12/06 03:49:09;;;;;;;4.25;3.38;;;6.40;92.90;;;;;;2543587;28;20056;-81
2023/12/06 03:50:23;;;;;;;5.40;3.33;;;6.40;92.90;;;;;;2540520;28;20475;-81
2023/12/06 03:51:37;;;;;;;7.25;3.45;;;6.40;92.90;;;;;;2533480;28;20491;-80
2023/12/06 03:52:52;;;;;;;4.05;2.88;;;6.40;92.90;;;;;;2533222;28;20054;-81
2023/12/06 03:54:05;;;;;;;6.55;2.95;;;6.40;92.90;;;;;;2533626;28;20093;-79
2023/12/06 03:55:21;;;;;;;7.03;3.28;;;6.40;92.90;;;;;;2533395;28;20510;-80
2023/12/06 03:56:35;;;;;;;4.85;3.55;;;6.40;92.90;;;;;;2533889;28;20068;-80
2023/12/06 03:57:49;;;;;;;8.45;3.13;;;6.50;92.90;;;;;;2540568;28;20374;-80
2023/12/06 03:59:04;;;;;;;5.05;3.00;;;6.50;92.90;;;;;;2543039;28;20049;-81
2023/12/06 04:00:19;;;;;;;3.15;2.45;;;6.40;92.90;;;;;;2541279;28;20138;-80
2023/12/06 04:01:34;;;;;;;5.93;3.20;;;6.50;92.80;;;;;;2541777;28;20049;-81
2023/12/06 04:02:48;;;;;;;7.13;3.72;;;6.40;92.80;;;;;;2543560;28;20053;-82
2023/12/06 04:04:02;;;;;;;5.60;3.35;;;6.50;92.80;;;;;;2534721;28;20045;-79
2023/12/06 04:05:17;;;;;;;5.50;3.58;;;6.50;92.80;;;;;;2543862;28;20044;-80
2023/12/06 04:06:30;;;;;;;13.85;3.70;;;6.50;92.80;;;;;;2543422;28;20053;-80
2023/12/06 04:07:45;;;;;;;5.85;2.55;;;6.50;92.80;;;;;;2543187;28;20048;-81
2023/12/06 04:08:59;;;;;;;10.55;2.90;;;6.50;92.80;;;;;;2535692;28;20049;-81
2023/12/06 04:10:14;;;;;;;3.33;2.85;;;6.50;92.70;;;;;;2533086;28;20060;-81
2023/12/06 04:11:27;;;;;;;5.82;3.63;;;6.50;92.70;;;;;;2532881;28;20052;-81
2023/12/06 04:12:42;;;;;;;4.88;3.67;;;6.50;92.70;;;;;;2539098;28;20053;-81
2023/12/06 04:13:56;;;;;;;7.78;6.43;;;6.50;92.70;;;;;;2535526;28;20050;-80
2023/12/06 04:15:11;;;;;;;3.45;2.63;;;6.50;92.70;;;;;;2541305;28;20040;-81
2023/12/06 04:16:25;;;;;;;6.35;5.07;;;6.50;92.70;;;;;;2536952;28;20555;-81
2023/12/06 04:17:41;;;;;;;4.05;2.70;;;6.50;92.70;;;;;;2543553;28;20049;-79
2023/12/06 04:18:55;;;;;;;12.25;6.13;;;6.50;92.70;;;;;;2542701;28;20132;-81
2023/12/06 04:20:11;;;;;;;46.90;29.35;;;6.50;92.70;;;;;;2534232;28;20056;-81
2023/12/06 04:21:25;;;;;;;88.25;60.13;;;6.40;92.60;;;;;;2536693;28;20134;-81
2023/12/06 04:22:39;;;;;;;29.85;21.08;;;6.50;92.70;;;;;;2543376;28;20076;-81
2023/12/06 04:23:53;;;;;;;19.60;14.38;;;6.50;92.70;;;;;;2542708;28;20389;-80
2023/12/06 04:25:09;;;;;;;107.28;68.55;;;6.50;92.70;;;;;;2542559;28;20051;-81
2023/12/06 04:26:22;;;;;;;48.13;31.55;;;6.50;92.70;;;;;;2536179;28;20049;-81
2023/12/06 04:27:37;;;;;;;50.92;35.75;;;6.50;92.70;;;;;;2538649;28;20068;-81
2023/12/06 04:28:51;;;;;;;8.35;4.55;;;6.50;92.70;;;;;;2539475;28;20526;-81
2023/12/06 04:30:06;;;;;;;88.32;57.10;;;6.50;92.70;;;;;;2534325;28;20049;-79
2023/12/06 04:31:20;;;;;;;23.05;14.68;;;6.60;92.70;;;;;;2532575;28;20041;-80
2023/12/06 04:32:35;;;;;;;17.35;8.55;;;6.60;92.70;;;;;;2537834;28;20135;-81
2023/12/06 04:33:50;;;;;;;135.23;84.22;;;6.60;92.70;;;;;;2543142;28;20160;-81
2023/12/06 04:35:06;;;;;;;63.10;38.33;;;6.60;92.60;;;;;;2534245;28;20134;-79
2023/12/06 04:36:21;;;;;;;52.67;31.88;;;6.60;92.60;;;;;;2535902;28;20052;-80
2023/12/06 04:37:35;;;;;;;12.70;8.77;;;6.60;92.60;;;;;;2543636;28;20080;-81
2023/12/06 04:38:49;;;;;;;85.80;62.13;;;6.60;92.60;;;;;;2543913;28;20056;-81
2023/12/06 04:40:04;;;;;;;28.10;17.13;;;6.60;92.60;;;;;;2543154;28;20056;-82
2023/12/06 04:41:19;;;;;;;35.75;31.45;;;6.60;92.60;;;;;;2535092;28;20045;-81
2023/12/06 04:42:33;;;;;;;23.67;18.50;;;6.60;92.60;;;;;;2539560;28;20045;-82
2023/12/06 04:43:47;;;;;;;39.13;31.00;;;6.60;92.60;;;;;;2538893;28;20038;-80
2023/12/06 04:45:01;;;;;;;37.00;29.73;;;6.60;92.60;;;;;;2543018;28;20053;-80
2023/12/06 04:46:16;;;;;;;40.38;27.88;;;6.60;92.50;;;;;;2536716;28;20114;-80
2023/12/06 04:47:30;;;;;;;4.93;3.85;;;6.60;92.50;;;;;;2540299;28;20045;-81
2023/12/06 04:48:45;;;;;;;6.22;3.80;;;6.60;92.50;;;;;;2540905;28;20053;-80
2023/12/06 04:50:00;;;;;;;5.10;3.35;;;6.60;92.50;;;;;;2536608;28;20053;-81
2023/12/06 04:51:16;;;;;;;4.03;2.65;;;6.60;92.50;;;;;;2535971;28;20527;-81
2023/12/06 04:52:30;;;;;;;5.97;3.25;;;6.60;92.50;;;;;;2545082;28;20060;-80
2023/12/06 04:53:45;;;;;;;8.65;4.25;;;6.60;92.50;;;;;;2539455;28;20491;-81
2023/12/06 04:55:04;;;;;;;3.05;2.75;;;6.60;92.50;;;;;;2534367;28;20056;-80
2023/12/06 04:56:18;;;;;;;11.82;6.80;;;6.60;92.50;;;;;;2543243;28;20045;-81
2023/12/06 04:57:32;;;;;;;5.85;4.43;;;6.60;92.50;;;;;;2535116;28;20052;-81
2023/12/06 04:58:47;;;;;;;7.15;3.78;;;6.60;92.50;;;;;;2541321;28;20048;-80
2023/12/06 05:00:01;;;;;;;7.57;4.53;;;6.60;92.50;;;;;;2536147;28;20041;-80
2023/12/06 05:01:16;;;;;;;6.63;4.63;;;6.60;92.40;;;;;;2543075;28;20047;-81
2023/12/06 05:02:30;;;;;;;5.22;3.25;;;6.60;92.40;;;;;;2537669;28;20056;-81
2023/12/06 05:03:44;;;;;;;7.18;4.03;;;6.60;92.40;;;;;;2544791;28;20041;-81
2023/12/06 05:05:00;;;;;;;8.50;3.85;;;6.50;92.30;;;;;;2537297;28;20056;-81
2023/12/06 05:06:15;;;;;;;4.10;2.97;;;6.50;92.30;;;;;;2542759;28;20512;-80
2023/12/06 05:07:28;;;;;;;7.43;3.55;;;6.50;92.30;;;;;;2538410;28;20063;-80
2023/12/06 05:08:43;;;;;;;3.95;3.10;;;6.50;92.40;;;;;;2539510;28;20053;-81
2023/12/06 05:09:57;;;;;;;5.55;4.03;;;6.50;92.30;;;;;;2542014;28;20114;-82
2023/12/06 05:11:12;;;;;;;3.88;2.75;;;6.50;92.40;;;;;;2544738;28;20068;-80
2023/12/06 05:12:26;;;;;;;12.43;6.40;;;6.50;92.40;;;;;;2547260;28;20044;-81
2023/12/06 05:13:41;;;;;;;4.63;3.95;;;6.50;92.40;;;;;;2547980;28;20044;-80
2023/12/06 05:14:55;;;;;;;6.28;3.35;;;6.50;92.40;;;;;;2546299;28;20412;-80
2023/12/06 05:16:10;;;;;;;9.48;3.63;;;6.50;92.40;;;;;;2546450;28;20056;-81
2023/12/06 05:17:24;;;;;;;8.80;4.32;;;6.50;92.40;;;;;;2546139;28;20056;-81
2023/12/06 05:18:38;;;;;;;8.98;4.05;;;6.50;92.30;;;;;;2541446;28;20077;-81
2023/12/06 05:19:52;;;;;;;9.43;3.75;;;6.50;92.40;;;;;;2541976;28;20049;-79
2023/12/06 05:21:08;;;;;;;3.95;3.00;;;6.50;92.30;;;;;;2546091;28;20635;-82
2023/12/06 05:22:22;;;;;;;6.22;4.07;;;6.50;92.30;;;;;;2547839;28;20468;-80
2023/12/06 05:23:37;;;;;;;7.95;4.10;;;6.40;92.30;;;;;;2549786;28;20045;-80
2023/12/06 05:24:50;;;;;;;7.88;3.63;;;6.40;92.30;;;;;;2550893;28;20433;-82
2023/12/06 05:26:05;;;;;;;11.45;3.85;;;6.40;92.30;;;;;;2550268;28;20045;-82
2023/12/06 05:27:19;;;;;;;9.45;4.30;;;6.40;92.30;;;;;;2539955;28;20046;-81
2023/12/06 05:28:34;;;;;;;5.75;3.42;;;6.40;92.40;;;;;;2541098;28;20041;-80
2023/12/06 05:29:47;;;;;;;5.97;4.15;;;6.40;92.40;;;;;;2537786;28;20502;-81
2023/12/06 05:31:02;;;;;;;6.93;6.22;;;6.40;92.40;;;;;;2544130;28;20135;-81
2023/12/06 05:32:16;;;;;;;8.73;4.95;;;6.40;92.40;;;;;;2539153;28;20053;-82
2023/12/06 05:33:30;;;;;;;9.30;7.20;;;6.40;92.40;;;;;;2544102;28;20462;-82
2023/12/06 05:34:44;;;;;;;9.43;6.75;;;6.40;92.50;;;;;;2542653;28;20049;-82
2023/12/06 05:35:59;;;;;;;8.20;5.55;;;6.40;92.50;;;;;;2539259;28;20041;-82
2023/12/06 05:37:14;;;;;;;5.90;4.88;;;6.40;92.60;;;;;;2536676;28;20057;-81
2023/12/06 05:38:28;;;;;;;11.27;5.18;;;6.40;92.60;;;;;;2536944;28;20053;-81
2023/12/06 05:39:42;;;;;;;10.13;6.88;;;6.40;92.50;;;;;;2540802;28;20040;-81
2023/12/06 05:40:57;;;;;;;5.05;3.88;;;6.40;92.50;;;;;;2546543;28;20128;-81
2023/12/06 05:42:11;;;;;;;14.93;6.88;;;6.40;92.40;;;;;;2546215;28;20049;-82
2023/12/06 05:43:25;;;;;;;5.55;4.82;;;6.40;92.70;;;;;;2545893;28;20059;-81
2023/12/06 05:44:39;;;;;;;5.85;4.22;;;6.40;92.40;;;;;;2545903;28;20072;-81
2023/12/06 05:45:54;;;;;;;5.88;4.50;;;6.40;92.40;;;;;;2539613;28;20045;-78
2023/12/06 05:47:08;;;;;;;9.20;7.68;;;6.40;92.50;;;;;;2543565;28;20049;-81
2023/12/06 05:48:23;;;;;;;7.93;5.22;;;6.40;92.50;;;;;;2543939;28;20062;-81
2023/12/06 05:49:36;;;;;;;5.82;4.97;;;6.40;92.50;;;;;;2539929;28;20509;-81
2023/12/06 05:50:51;;;;;;;7.43;5.97;;;6.40;92.50;;;;;;2545726;28;20049;-81
2023/12/06 05:52:06;;;;;;;9.38;5.82;;;6.40;92.50;;;;;;2545219;28;20045;-81
2023/12/06 05:53:23;;;;;;;8.57;6.95;;;6.40;92.50;;;;;;2544455;28;20071;-80
2023/12/06 05:54:37;;;;;;;11.75;8.10;;;6.40;92.60;;;;;;2540363;28;20049;-81
2023/12/06 05:55:52;;;;;;;9.82;5.95;;;6.40;92.60;;;;;;2544062;28;20575;-78
2023/12/06 05:57:06;;;;;;;13.25;7.13;;;6.40;92.50;;;;;;2536638;28;20066;-80
2023/12/06 05:58:21;;;;;;;6.25;5.25;;;6.40;92.50;;;;;;2536059;28;20049;-80
2023/12/06 05:59:34;;;;;;;12.85;7.97;;;6.40;92.80;;;;;;2544259;28;20056;-80
2023/12/06 06:00:49;;;;;;;10.57;8.30;;;6.40;92.50;;;;;;2538782;28;20426;-78
2023/12/06 06:02:03;;;;;;;8.95;5.78;;;6.50;92.60;;;;;;2542452;28;20052;-80
2023/12/06 06:03:18;;;;;;;10.57;5.60;;;6.40;92.50;;;;;;2535594;28;20051;-80
2023/12/06 06:04:31;;;;;;;11.48;6.93;;;6.40;92.50;;;;;;2544241;28;20044;-79
2023/12/06 06:05:46;;;;;;;13.85;7.55;;;6.40;92.50;;;;;;2544526;28;20040;-80
2023/12/06 06:07:00;;;;;;;8.10;5.95;;;6.40;92.50;;;;;;2543881;28;20052;-80
2023/12/06 06:08:15;;;;;;;9.80;6.35;;;6.40;92.40;;;;;;2543558;28;20055;-81
2023/12/06 06:09:30;;;;;;;10.23;7.43;;;6.40;92.40;;;;;;2534468;28;20045;-80
2023/12/06 06:10:45;;;;;;;11.48;7.15;;;6.50;92.40;;;;;;2534561;28;20417;-80
2023/12/06 06:11:58;;;;;;;8.88;6.93;;;6.40;92.40;;;;;;2541556;28;20045;-80
2023/12/06 06:13:13;;;;;;;14.45;6.82;;;6.40;92.40;;;;;;2536212;28;20105;-81
2023/12/06 06:14:27;;;;;;;12.70;7.53;;;6.40;92.70;;;;;;2544624;28;20452;-80
2023/12/06 06:15:42;;;;;;;9.68;7.18;;;6.40;92.30;;;;;;2539579;28;20045;-81
2023/12/06 06:16:55;;;;;;;9.30;6.55;;;6.40;92.30;;;;;;2534482;28;20045;-80
2023/12/06 06:18:10;;;;;;;7.72;6.43;;;6.40;92.30;;;;;;2542791;28;20049;-80
2023/12/06 06:19:24;;;;;;;10.63;7.28;;;6.40;92.30;;;;;;2536366;28;20065;-81
2023/12/06 06:20:39;;;;;;;8.32;6.07;;;6.40;92.40;;;;;;2540165;28;20351;-80
2023/12/06 06:21:52;;;;;;;9.55;7.05;;;6.40;92.30;;;;;;2534362;28;20060;-80
2023/12/06 06:23:07;;;;;;;8.15;6.80;;;6.40;92.30;;;;;;2542440;28;20482;-80
2023/12/06 06:24:21;;;;;;;9.38;7.38;;;6.40;92.30;;;;;;2534436;28;20094;-80
2023/12/06 06:25:37;;;;;;;8.45;6.63;;;6.40;92.30;;;;;;2534334;28;20123;-81
2023/12/06 06:26:51;;;;;;;10.00;7.03;;;6.40;92.30;;;;;;2540296;28;20045;-81
2023/12/06 06:28:05;;;;;;;11.57;7.60;;;6.40;92.30;;;;;;2543650;28;20043;-78
2023/12/06 06:29:19;;;;;;;11.70;7.22;;;6.40;92.30;;;;;;2544017;28;20049;-78
2023/12/06 06:30:34;;;;;;;14.15;8.77;;;6.40;92.30;;;;;;2544094;28;20470;-78
2023/12/06 06:31:47;;;;;;;10.13;7.10;;;6.40;92.30;;;;;;2543312;28;20045;-78
2023/12/06 06:33:02;;;;;;;12.18;7.28;;;6.40;92.30;;;;;;2544439;28;20738;-79